Time,TemperatureF,DewpointF,PressureIn,WindDirection,WindDirectionDegrees,WindSpeedMPH,WindSpeedGustMPH,Humidity,HourlyPrecipIn,Conditions,Clouds,dailyrainin,SolarRadiationWatts/m^2,SoftwareType,DateUTC
2013-06-30 00:02:00,62.0,52.0,29.87,North,-999,-999.0,-999.0,70,-99.99,,,-99.99,1420.000000,,2013-06-30 05:02:00,
2013-06-30 00:12:00,62.0,52.0,29.87,North,-999,-999.0,-999.0,70,-99.99,,,-99.99,1420.000000,,2013-06-30 05:12:00,
2013-06-30 00:22:00,62.0,51.0,29.87,North,-999,-999.0,-999.0,68,-99.99,,,-99.99,1420.000000,,2013-06-30 05:22:00,
2013-06-30 00:33:00,63.0,52.0,29.87,North,-999,-999.0,-999.0,67,-99.99,,,-99.99,1420.000000,,2013-06-30 05:33:00,
2013-06-30 00:43:00,63.0,52.0,29.87,North,-999,-999.0,-999.0,67,-99.99,,,-99.99,1420.000000,,2013-06-30 05:43:00,
2013-06-30 00:53:00,63.0,52.0,29.87,North,-999,-999.0,-999.0,67,-99.99,,,-99.99,1420.000000,,2013-06-30 05:53:00,
2013-06-30 01:02:00,62.0,51.0,29.87,North,-999,-999.0,-999.0,67,-99.99,,,-99.99,1420.000000,,2013-06-30 06:02:00,
2013-06-30 01:23:00,62.0,51.0,29.87,North,-999,-999.0,-999.0,68,-99.99,,,-99.99,1420.000000,,2013-06-30 06:23:00,
2013-06-30 01:34:00,61.0,51.0,29.87,North,-999,-999.0,-999.0,69,-99.99,,,-99.99,1420.000000,,2013-06-30 06:34:00,
2013-06-30 01:43:00,61.0,51.0,29.87,North,-999,-999.0,-999.0,69,-99.99,,,-99.99,1420.000000,,2013-06-30 06:43:00,
2013-06-30 01:53:00,60.0,51.0,29.87,North,-999,-999.0,-999.0,71,-99.99,,,-99.99,1420.000000,,2013-06-30 06:53:00,
2013-06-30 02:02:00,60.0,51.0,29.87,North,-999,-999.0,-999.0,71,-99.99,,,-99.99,1420.000000,,2013-06-30 07:02:00,
2013-06-30 02:12:00,60.0,50.0,29.87,North,-999,-999.0,-999.0,70,-99.99,,,-99.99,1420.000000,,2013-06-30 07:12:00,
2013-06-30 02:22:00,60.0,51.0,29.87,North,-999,-999.0,-999.0,71,-99.99,,,-99.99,1420.000000,,2013-06-30 07:22:00,
2013-06-30 02:33:00,60.0,50.0,29.90,North,-999,-999.0,-999.0,70,-99.99,,,-99.99,1420.000000,,2013-06-30 07:33:00,
2013-06-30 02:44:00,60.0,50.0,29.90,North,-999,-999.0,-999.0,70,-99.99,,,-99.99,1420.000000,,2013-06-30 07:44:00,
2013-06-30 02:53:00,59.0,49.0,29.90,North,-999,-999.0,-999.0,70,-99.99,,,-99.99,1420.000000,,2013-06-30 07:53:00,
2013-06-30 03:02:00,59.0,49.0,29.90,North,-999,-999.0,-999.0,70,-99.99,,,-99.99,1420.000000,,2013-06-30 08:02:00,
2013-06-30 03:12:00,58.0,49.0,29.90,North,-999,-999.0,-999.0,71,-99.99,,,-99.99,1420.000000,,2013-06-30 08:12:00,
2013-06-30 03:22:00,58.0,49.0,29.90,North,-999,-999.0,-999.0,71,-99.99,,,-99.99,1420.000000,,2013-06-30 08:22:00,
2013-06-30 03:33:00,58.0,49.0,29.90,North,-999,-999.0,-999.0,71,-99.99,,,-99.99,1420.000000,,2013-06-30 08:33:00,
2013-06-30 03:42:00,58.0,49.0,29.90,North,-999,-999.0,-999.0,71,-99.99,,,-99.99,1420.000000,,2013-06-30 08:42:00,
2013-06-30 03:53:00,57.0,49.0,29.90,North,-999,-999.0,-999.0,74,-99.99,,,-99.99,1420.000000,,2013-06-30 08:53:00,
2013-06-30 04:01:00,57.0,49.0,29.90,North,-999,-999.0,-999.0,75,-99.99,,,-99.99,1420.000000,,2013-06-30 09:01:00,
2013-06-30 04:12:00,57.0,49.0,29.90,North,-999,-999.0,-999.0,75,-99.99,,,-99.99,1420.000000,,2013-06-30 09:12:00,
2013-06-30 04:23:00,56.0,48.0,29.90,North,-999,-999.0,-999.0,75,-99.99,,,-99.99,1420.000000,,2013-06-30 09:23:00,
2013-06-30 04:34:00,56.0,49.0,29.90,North,-999,-999.0,-999.0,76,-99.99,,,-99.99,1420.000000,,2013-06-30 09:34:00,
2013-06-30 04:43:00,55.0,48.0,29.90,North,-999,-999.0,-999.0,76,-99.99,,,-99.99,1420.000000,,2013-06-30 09:43:00,
2013-06-30 04:53:00,55.0,48.0,29.93,North,-999,-999.0,-999.0,76,-99.99,,,-99.99,1420.000000,,2013-06-30 09:53:00,
2013-06-30 05:02:00,55.0,48.0,29.93,North,-999,-999.0,-999.0,77,-99.99,,,-99.99,1420.000000,,2013-06-30 10:02:00,
2013-06-30 05:11:00,54.0,47.0,29.93,North,-999,-999.0,-999.0,78,-99.99,,,-99.99,1420.000000,,2013-06-30 10:11:00,
2013-06-30 05:22:00,54.0,48.0,29.93,North,-999,-999.0,-999.0,79,-99.99,,,-99.99,1420.000000,,2013-06-30 10:22:00,
2013-06-30 05:33:00,54.0,48.0,29.93,North,-999,-999.0,-999.0,79,-99.99,,,-99.99,1420.000000,,2013-06-30 10:33:00,
2013-06-30 05:42:00,53.0,47.0,29.93,North,-999,-999.0,-999.0,80,-99.99,,,-99.99,1420.000000,,2013-06-30 10:42:00,
2013-06-30 05:53:00,53.0,47.0,29.93,North,-999,-999.0,-999.0,79,-99.99,,,-99.99,1420.000000,,2013-06-30 10:53:00,
2013-06-30 06:02:00,54.0,48.0,29.96,North,-999,-999.0,-999.0,79,-99.99,,,-99.99,1420.000000,,2013-06-30 11:02:00,
2013-06-30 06:11:00,54.0,47.0,29.96,North,-999,-999.0,-999.0,78,-99.99,,,-99.99,1420.000000,,2013-06-30 11:11:00,
2013-06-30 06:22:00,54.0,47.0,29.96,North,-999,-999.0,-999.0,78,-99.99,,,-99.99,1420.000000,,2013-06-30 11:22:00,
2013-06-30 06:33:00,54.0,47.0,29.96,North,-999,-999.0,-999.0,78,-99.99,,,-99.99,1420.000000,,2013-06-30 11:33:00,
2013-06-30 06:43:00,55.0,48.0,29.96,North,-999,-999.0,-999.0,76,-99.99,,,-99.99,1420.000000,,2013-06-30 11:43:00,
2013-06-30 06:53:00,58.0,49.0,29.96,North,-999,-999.0,-999.0,72,-99.99,,,-99.99,1420.000000,,2013-06-30 11:53:00,
2013-06-30 11:34:00,74.0,51.0,29.99,North,-999,-999.0,-999.0,44,-99.99,,,-99.99,1420.000000,,2013-06-30 16:34:00,
2013-06-30 11:53:00,74.0,50.0,29.99,North,-999,-999.0,-999.0,43,-99.99,,,-99.99,1420.000000,,2013-06-30 16:53:00,
2013-06-30 12:02:00,74.0,51.0,29.99,North,-999,-999.0,-999.0,44,-99.99,,,-99.99,1420.000000,,2013-06-30 17:02:00,
2013-06-30 12:23:00,75.0,50.0,29.99,North,-999,-999.0,-999.0,42,-99.99,,,-99.99,1420.000000,,2013-06-30 17:23:00,
2013-06-30 12:34:00,76.0,51.0,29.96,North,-999,-999.0,-999.0,41,-99.99,,,-99.99,1420.000000,,2013-06-30 17:34:00,
2013-06-30 12:43:00,76.0,52.0,29.96,North,-999,-999.0,-999.0,43,-99.99,,,-99.99,1420.000000,,2013-06-30 17:43:00,
2013-06-30 12:52:00,76.0,51.0,29.99,North,-999,-999.0,-999.0,42,-99.99,,,-99.99,1420.000000,,2013-06-30 17:52:00,
2013-06-30 13:02:00,76.0,51.0,29.99,North,-999,-999.0,-999.0,42,-99.99,,,-99.99,1420.000000,,2013-06-30 18:02:00,
2013-06-30 13:12:00,77.0,50.0,29.99,North,-999,-999.0,-999.0,39,-99.99,,,-99.99,1420.000000,,2013-06-30 18:12:00,
2013-06-30 13:22:00,77.0,50.0,29.99,North,-999,-999.0,-999.0,39,-99.99,,,-99.99,1420.000000,,2013-06-30 18:22:00,
2013-06-30 13:34:00,76.0,48.0,29.99,North,-999,-999.0,-999.0,37,-99.99,,,-99.99,1420.000000,,2013-06-30 18:34:00,
2013-06-30 13:43:00,76.0,48.0,29.99,North,-999,-999.0,-999.0,37,-99.99,,,-99.99,1420.000000,,2013-06-30 18:43:00,
2013-06-30 13:53:00,77.0,49.0,29.99,North,-999,-999.0,-999.0,37,-99.99,,,-99.99,1420.000000,,2013-06-30 18:53:00,
2013-06-30 14:01:00,77.0,47.0,29.99,North,-999,-999.0,-999.0,35,-99.99,,,-99.99,1420.000000,,2013-06-30 19:01:00,
2013-06-30 14:11:00,77.0,46.0,29.99,North,-999,-999.0,-999.0,34,-99.99,,,-99.99,1420.000000,,2013-06-30 19:11:00,
2013-06-30 14:22:00,77.0,46.0,29.96,North,-999,-999.0,-999.0,33,-99.99,,,-99.99,1420.000000,,2013-06-30 19:22:00,
2013-06-30 14:33:00,78.0,47.0,29.96,North,-999,-999.0,-999.0,33,-99.99,,,-99.99,1420.000000,,2013-06-30 19:33:00,
2013-06-30 14:43:00,78.0,47.0,29.96,North,-999,-999.0,-999.0,34,-99.99,,,-99.99,1420.000000,,2013-06-30 19:43:00,
2013-06-30 14:53:00,78.0,46.0,29.96,North,-999,-999.0,-999.0,32,-99.99,,,-99.99,1420.000000,,2013-06-30 19:53:00,
2013-06-30 15:02:00,78.0,47.0,29.96,North,-999,-999.0,-999.0,33,-99.99,,,-99.99,1420.000000,,2013-06-30 20:02:00,
2013-06-30 15:11:00,78.0,46.0,29.96,North,-999,-999.0,-999.0,32,-99.99,,,-99.99,1420.000000,,2013-06-30 20:11:00,
2013-06-30 15:22:00,78.0,46.0,29.96,North,-999,-999.0,-999.0,32,-99.99,,,-99.99,1420.000000,,2013-06-30 20:22:00,
2013-06-30 15:34:00,78.0,46.0,29.96,North,-999,-999.0,-999.0,32,-99.99,,,-99.99,1420.000000,,2013-06-30 20:34:00,
2013-06-30 15:42:00,80.0,47.0,29.96,North,-999,-999.0,-999.0,31,-99.99,,,-99.99,1420.000000,,2013-06-30 20:42:00,
2013-06-30 15:52:00,80.0,47.0,29.96,North,-999,-999.0,-999.0,31,-99.99,,,-99.99,1420.000000,,2013-06-30 20:52:00,
2013-06-30 16:01:00,80.0,46.0,29.96,North,-999,-999.0,-999.0,30,-99.99,,,-99.99,1420.000000,,2013-06-30 21:01:00,
2013-06-30 16:11:00,78.0,45.0,29.99,North,-999,-999.0,-999.0,31,-99.99,,,-99.99,1420.000000,,2013-06-30 21:11:00,
2013-06-30 16:22:00,79.0,45.0,29.99,North,-999,-999.0,-999.0,30,-99.99,,,-99.99,1420.000000,,2013-06-30 21:22:00,
2013-06-30 16:34:00,80.0,46.0,29.96,North,-999,-999.0,-999.0,30,-99.99,,,-99.99,1420.000000,,2013-06-30 21:34:00,
2013-06-30 16:53:00,80.0,46.0,29.96,North,-999,-999.0,-999.0,30,-99.99,,,-99.99,1420.000000,,2013-06-30 21:53:00,
2013-06-30 17:01:00,80.0,46.0,29.96,North,-999,-999.0,-999.0,30,-99.99,,,-99.99,1420.000000,,2013-06-30 22:01:00,
2013-06-30 17:11:00,80.0,45.0,29.96,North,-999,-999.0,-999.0,29,-99.99,,,-99.99,1420.000000,,2013-06-30 22:11:00,
2013-06-30 17:22:00,80.0,46.0,29.96,North,-999,-999.0,-999.0,30,-99.99,,,-99.99,1420.000000,,2013-06-30 22:22:00,
2013-06-30 17:34:00,80.0,46.0,29.96,North,-999,-999.0,-999.0,30,-99.99,,,-99.99,1420.000000,,2013-06-30 22:34:00,
2013-06-30 17:43:00,80.0,47.0,29.96,North,-999,-999.0,-999.0,31,-99.99,,,-99.99,1420.000000,,2013-06-30 22:43:00,
2013-06-30 17:53:00,80.0,47.0,29.96,North,-999,-999.0,-999.0,31,-99.99,,,-99.99,1420.000000,,2013-06-30 22:53:00,
2013-06-30 18:22:00,80.0,47.0,29.96,North,-999,-999.0,-999.0,31,-99.99,,,-99.99,1420.000000,,2013-06-30 23:22:00,
2013-06-30 18:33:00,80.0,47.0,29.96,North,-999,-999.0,-999.0,31,-99.99,,,-99.99,1420.000000,,2013-06-30 23:33:00,
2013-06-30 18:43:00,80.0,47.0,29.96,North,-999,-999.0,-999.0,32,-99.99,,,-99.99,1420.000000,,2013-06-30 23:43:00,
2013-06-30 18:53:00,80.0,47.0,29.99,North,-999,-999.0,-999.0,32,-99.99,,,-99.99,1420.000000,,2013-06-30 23:53:00,
2013-06-30 19:01:00,80.0,47.0,29.99,North,-999,-999.0,-999.0,32,-99.99,,,-99.99,1420.000000,,2013-07-01 00:01:00,
2013-06-30 19:11:00,80.0,47.0,29.99,North,-999,-999.0,-999.0,32,-99.99,,,-99.99,1420.000000,,2013-07-01 00:11:00,
2013-06-30 19:22:00,79.0,48.0,29.99,North,-999,-999.0,-999.0,34,-99.99,,,-99.99,1420.000000,,2013-07-01 00:22:00,
2013-06-30 19:33:00,79.0,48.0,29.99,North,-999,-999.0,-999.0,34,-99.99,,,-99.99,1420.000000,,2013-07-01 00:33:00,
2013-06-30 19:42:00,79.0,49.0,29.99,North,-999,-999.0,-999.0,35,-99.99,,,-99.99,1420.000000,,2013-07-01 00:42:00,
2013-06-30 19:52:00,79.0,49.0,29.99,North,-999,-999.0,-999.0,35,-99.99,,,-99.99,1420.000000,,2013-07-01 00:52:00,
2013-06-30 20:01:00,77.0,48.0,29.99,North,-999,-999.0,-999.0,36,-99.99,,,-99.99,1420.000000,,2013-07-01 01:01:00,
2013-06-30 20:11:00,77.0,49.0,29.99,North,-999,-999.0,-999.0,37,-99.99,,,-99.99,1420.000000,,2013-07-01 01:11:00,
2013-06-30 20:22:00,76.0,49.0,29.99,North,-999,-999.0,-999.0,39,-99.99,,,-99.99,1420.000000,,2013-07-01 01:22:00,
2013-06-30 20:33:00,75.0,49.0,29.99,North,-999,-999.0,-999.0,40,-99.99,,,-99.99,1420.000000,,2013-07-01 01:33:00,
2013-06-30 20:42:00,72.0,52.0,29.99,North,-999,-999.0,-999.0,49,-99.99,,,-99.99,1420.000000,,2013-07-01 01:42:00,
2013-06-30 20:52:00,72.0,52.0,29.99,North,-999,-999.0,-999.0,49,-99.99,,,-99.99,1420.000000,,2013-07-01 01:52:00,
2013-06-30 21:02:00,70.0,52.0,29.99,North,-999,-999.0,-999.0,52,-99.99,,,-99.99,1420.000000,,2013-07-01 02:02:00,
2013-06-30 21:11:00,68.0,53.0,29.99,North,-999,-999.0,-999.0,59,-99.99,,,-99.99,1420.000000,,2013-07-01 02:11:00,
2013-06-30 21:22:00,68.0,53.0,29.99,North,-999,-999.0,-999.0,59,-99.99,,,-99.99,1420.000000,,2013-07-01 02:22:00,
2013-06-30 21:44:00,65.0,51.0,29.99,North,-999,-999.0,-999.0,60,-99.99,,,-99.99,1420.000000,,2013-07-01 02:44:00,
2013-06-30 21:53:00,64.0,50.0,29.99,North,-999,-999.0,-999.0,60,-99.99,,,-99.99,1420.000000,,2013-07-01 02:53:00,
2013-06-30 22:01:00,64.0,50.0,29.99,North,-999,-999.0,-999.0,60,-99.99,,,-99.99,1420.000000,,2013-07-01 03:01:00,
2013-06-30 22:11:00,63.0,50.0,29.99,North,-999,-999.0,-999.0,62,-99.99,,,-99.99,1420.000000,,2013-07-01 03:11:00,
2013-06-30 22:23:00,63.0,50.0,30.02,North,-999,-999.0,-999.0,63,-99.99,,,-99.99,1420.000000,,2013-07-01 03:23:00,
2013-06-30 22:33:00,63.0,50.0,30.02,North,-999,-999.0,-999.0,63,-99.99,,,-99.99,1420.000000,,2013-07-01 03:33:00,
2013-06-30 22:43:00,62.0,50.0,30.02,North,-999,-999.0,-999.0,65,-99.99,,,-99.99,1420.000000,,2013-07-01 03:43:00,
2013-06-30 22:52:00,62.0,50.0,30.02,North,-999,-999.0,-999.0,65,-99.99,,,-99.99,1420.000000,,2013-07-01 03:52:00,
2013-06-30 23:01:00,61.0,50.0,30.02,North,-999,-999.0,-999.0,67,-99.99,,,-99.99,1420.000000,,2013-07-01 04:01:00,
2013-06-30 23:11:00,60.0,50.0,30.02,North,-999,-999.0,-999.0,70,-99.99,,,-99.99,1420.000000,,2013-07-01 04:11:00,
2013-06-30 23:22:00,60.0,50.0,30.02,North,-999,-999.0,-999.0,70,-99.99,,,-99.99,1420.000000,,2013-07-01 04:22:00,
2013-06-30 23:32:00,60.0,50.0,30.02,North,-999,-999.0,-999.0,70,-99.99,,,-99.99,1420.000000,,2013-07-01 04:32:00,
2013-06-30 23:43:00,60.0,50.0,30.02,North,-999,-999.0,-999.0,70,-99.99,,,-99.99,1420.000000,,2013-07-01 04:43:00,
2013-06-30 23:53:00,59.0,50.0,30.05,North,-999,-999.0,-999.0,71,-99.99,,,-99.99,1420.000000,,2013-07-01 04:53:00,